Latest Weather Observations for Wilkins Runway*

IDT60801

Issued at 10:02 pm EDT Monday 11 December 2017 (issued every 30 minutes, with the page automatically refreshed every 10 minutes)

About weather observations | Map of weather stations | Latest weather observations for ANT | Other Formats
Station Details ID: 300050 Name: WILKINS RUNWAY EAST Lat: -66.68 Lon: 111.53 Height: 753.0 m
Data from the previous 72 hours. | See also: Recent months for locations in Antarctica
Date/Time
EDT
Temp
°C
App
Temp
°C
Dew
Point
°C
Rel
Hum
%
Delta-T
°C
Wind Press
QNH
hPa
Press
MSL
hPa
Rain since
9am
mm
Dir  Spd
km/h
Gust
km/h
Spd
kts
Gust
kts
11/10:00pm -6.8 -10.5 -13.9 57 - ESE 2 4 1 2 984.7 - -
11/09:30pm -6.9 -10.6 -13.3 60 - SSE 2 6 1 3 984.8 - -
11/09:00pm -5.8 -9.2 -15.0 48 - CALM 0 0 0 0 985.0 - -
11/08:30pm -5.6 -8.9 -13.9 52 - CALM 0 0 0 0 985.1 - -
11/08:00pm -5.3 -8.6 -13.6 52 - CALM 0 2 0 1 985.2 - -
11/07:30pm -6.4 -10.5 -14.1 54 - W 4 6 2 3 985.2 - -
11/07:00pm -6.2 -10.6 -13.7 55 - NW 6 7 3 4 985.1 - -
11/06:30pm -6.6 -11.2 -13.9 56 - NNW 7 9 4 5 985.2 - -
11/06:00pm -6.2 -10.8 -14.0 54 - NNW 7 9 4 5 985.2 - -
11/05:30pm -5.8 -10.4 -13.6 54 - NNW 7 11 4 6 985.3 - -
11/05:00pm -6.9 -11.6 -14.8 53 - NNW 7 11 4 6 985.4 - -
11/04:30pm -6.9 -11.9 -14.2 56 - NNW 9 13 5 7 985.4 - -
11/04:00pm -6.3 -11.3 -14.1 54 - NNW 9 11 5 6 985.5 - -
11/03:30pm -7.1 -11.9 -16.7 46 - N 7 9 4 5 985.5 - -
11/03:00pm -5.2 -9.8 -16.1 42 - N 6 7 3 4 985.4 - -
11/02:30pm -6.5 -11.6 -15.2 50 - NNE 9 11 5 6 985.4 - -
11/02:00pm -7.4 -12.5 -15.1 54 - NNE 9 11 5 6 985.4 - -
11/01:30pm -8.5 -14.0 -15.0 59 - NE 11 11 6 6 985.5 - -
11/01:00pm -8.9 -14.0 -15.0 61 - NE 9 11 5 6 985.6 - -
11/12:30pm -9.9 -16.1 -14.8 67 - ENE 15 17 8 9 985.7 - -
11/12:00pm -10.4 -16.2 -15.0 69 - ENE 13 17 7 9 985.8 - -
11/11:30am -11.5 -18.5 -15.5 72 - ENE 19 20 10 11 985.9 - -
11/11:00am -12.2 -19.4 -16.0 73 - E 20 24 11 13 986.0 - -
11/10:30am -12.3 -19.9 -15.8 75 - E 22 28 12 15 985.9 - -
11/10:00am -12.1 -19.1 -15.4 76 - E 19 20 10 11 986.1 - -
11/09:30am -12.7 -19.3 -15.9 77 - E 17 19 9 10 986.2 - -
11/08:30am -11.9 -17.3 -14.0 84 - E 11 15 6 8 986.1 - -
11/08:00am -12.6 -17.6 -14.4 86 - ENE 9 9 5 5 986.1 - -
11/07:30am -11.5 -16.5 -13.4 86 - E 9 11 5 6 986.1 - -
11/07:00am -11.4 -15.8 -13.1 87 - ENE 6 9 3 5 986.1 - -
11/06:30am -11.4 -15.4 -13.0 88 - E 4 6 2 3 986.0 - -
11/06:03am -11.5 -15.9 -12.9 89 - E 6 6 3 3 986.0 - -
11/06:00am -11.4 -15.8 -12.8 89 - E 6 6 3 3 986.0 - -
11/05:30am -11.5 -14.8 -13.1 88 - CALM 0 4 0 2 986.0 - -
11/05:11am -11.6 -15.2 -13.2 88 - NW 2 4 1 2 986.0 - -
11/05:09am -11.5 -15.1 -13.1 88 - WNW 2 6 1 3 986.0 - -
11/05:00am -11.5 -15.1 -13.1 88 - W 2 4 1 2 986.0 - -
11/04:49am -11.5 -15.1 -12.9 89 - S 2 4 1 2 986.0 - -
11/04:30am -12.5 -16.2 -14.1 88 - N 2 7 1 4 985.9 - -
11/04:14am -13.7 -18.8 -15.7 85 - NNW 9 11 5 6 985.9 - -
11/04:00am -13.3 -18.4 -15.1 86 - NNW 9 9 5 5 985.8 - -
11/03:30am -13.3 -18.8 -15.1 86 - NW 11 13 6 7 985.9 - -
11/03:00am -12.2 -16.6 -13.8 88 - W 6 13 3 7 985.9 - -
11/02:30am -11.1 -16.0 -12.5 89 - WNW 9 11 5 6 985.7 - -
11/02:22am -12.1 -16.7 -14.0 86 - WNW 7 9 4 5 985.7 - -
11/02:00am -10.7 -15.0 -12.0 90 - WNW 6 7 3 4 985.7 - -
11/01:43am -10.3 -15.2 -11.3 92 - WNW 9 13 5 7 985.8 - -
11/01:30am -10.2 -15.1 -11.4 91 - WNW 9 11 5 6 985.8 - -
11/01:27am -10.3 -15.2 -11.5 91 - WNW 9 11 5 6 985.8 - -
11/01:16am -10.4 -14.9 -11.7 90 - WNW 7 11 4 6 985.7 - -
11/01:00am -10.1 -14.9 -11.1 92 - W 9 13 5 7 985.7 - -
11/12:47am -10.1 -15.3 -11.3 91 - W 11 13 6 7 985.8 - -
11/12:30am -10.1 -15.3 -11.4 90 - W 11 15 6 8 985.8 - -
11/12:28am -10.0 -15.2 -11.2 91 - W 11 15 6 8 985.8 - -
11/12:09am -9.9 -15.1 -11.2 90 - W 11 13 6 7 985.8 - -
11/12:00am -9.7 -14.9 -11.2 89 - W 11 13 6 7 985.8 - -
 
Date/Time
EDT
Temp
°C
App
Temp
°C
Dew
Point
°C
Rel
Hum
%
Delta-T
°C
Wind Press
QNH
hPa
Press
MSL
hPa
Rain since
9am
mm
Dir  Spd
km/h
Gust
km/h
Spd
kts
Gust
kts
10/11:30pm -9.5 -15.1 -10.8 90 - W 13 15 7 8 985.8 - -
10/11:00pm -9.4 -15.4 -11.3 86 - W 15 17 8 9 985.9 - -
10/10:47pm -9.3 -14.9 -11.3 85 - W 13 17 7 9 985.9 - -
10/10:30pm -9.3 -15.3 -11.3 85 - W 15 17 8 9 985.9 - -
10/10:28pm -9.2 -15.2 -11.2 85 - W 15 17 8 9 985.9 - -
10/10:00pm -9.1 -14.8 -12.2 78 - W 13 15 7 8 985.9 - -
10/09:56pm -9.1 -14.4 -11.6 82 - W 11 15 6 8 985.9 - -
10/09:55pm -9.1 -14.4 -11.6 82 - W 11 15 6 8 985.9 - -
10/09:40pm -9.1 -14.4 -11.9 80 - W 11 13 6 7 985.8 - -
10/09:38pm -9.0 -14.3 -11.8 80 - W 11 13 6 7 985.8 - -
10/09:30pm -9.1 -14.4 -11.9 80 - W 11 15 6 8 985.8 - -
10/09:21pm -9.0 -14.7 -11.8 80 - W 13 15 7 8 985.9 - -
10/09:15pm -9.0 -14.3 -11.8 80 - W 11 13 6 7 985.8 - -
10/09:00pm -8.9 -14.2 -12.7 74 - W 11 13 6 7 985.8 - -
10/08:30pm -8.8 -14.1 -12.4 75 - W 11 15 6 8 985.7 - -
10/08:00pm -8.7 -14.4 -12.1 76 - W 13 15 7 8 985.6 - -
10/07:30pm -8.5 -13.4 -12.5 73 - WSW 9 15 5 8 985.6 - -
10/07:00pm -8.1 -12.8 -15.1 57 - WSW 7 11 4 6 985.6 - -
10/06:30pm -7.8 -12.3 -15.7 53 - WSW 6 9 3 5 985.4 - -
10/06:00pm -7.2 -11.4 -16.8 46 - SW 4 7 2 4 985.2 - -
10/05:30pm -7.2 -11.4 -16.8 46 - SW 4 6 2 3 985.2 - -
10/05:00pm -7.4 -12.0 -16.5 48 - S 6 9 3 5 984.8 - -
10/04:30pm -7.6 -12.2 -16.9 47 - S 6 9 3 5 984.7 - -
10/04:00pm -7.8 -12.4 -16.4 50 - S 6 7 3 4 984.6 - -
10/03:30pm -7.3 -11.5 -17.2 45 - S 4 6 2 3 984.5 - -
10/03:00pm -6.9 -10.7 -17.1 44 - SSE 2 6 1 3 984.3 - -
10/02:30pm -7.5 -11.8 -17.6 44 - SSE 4 6 2 3 984.1 - -
10/02:00pm -6.6 -10.5 -17.3 42 - ESE 2 6 1 3 983.9 - -
10/01:30pm -7.6 -12.1 -15.7 52 - E 6 6 3 3 983.7 - -
10/01:00pm -8.6 -13.7 -15.3 58 - E 9 11 5 6 983.6 - -
10/12:30pm -8.7 -14.1 -14.3 64 - E 11 13 6 7 983.4 - -
10/12:00pm -9.1 -14.9 -14.3 66 - E 13 15 7 8 983.2 - -
10/11:30am -9.3 -15.1 -14.3 67 - E 13 17 7 9 983.2 - -
10/11:00am -9.5 -15.3 -14.1 69 - ESE 13 15 7 8 983.0 - -
10/10:30am -9.5 -15.3 -14.1 69 - ESE 13 15 7 8 982.8 - -
10/10:00am -9.5 -14.5 -14.3 68 - ESE 9 11 5 6 982.8 - -
10/09:30am -9.4 -13.9 -14.2 68 - E 6 9 3 5 982.6 - -
10/09:00am -9.5 -14.0 -14.5 67 - ESE 6 9 3 5 982.5 - -
10/08:30am -9.9 -15.3 -14.3 70 - E 11 15 6 8 982.2 - -
10/08:00am -9.6 -14.1 -15.1 64 - SSE 6 7 3 4 981.9 - -
10/07:30am -10.0 -14.5 -14.9 67 - ESE 6 11 3 6 981.8 - -
10/07:00am -10.0 -15.1 -14.9 67 - N 9 19 5 10 981.7 - -
10/06:30am -10.1 -15.2 -14.7 69 - ENE 9 13 5 7 981.5 - -
10/06:00am -10.0 -15.4 -14.2 71 - NE 11 17 6 9 981.2 - -
10/05:30am -10.2 -15.2 -13.6 76 - NE 9 13 5 7 981.0 - -
10/05:00am -10.4 -15.4 -13.6 77 - N 9 15 5 8 980.8 - -
10/04:30am -10.3 -16.0 -13.4 78 - NNE 13 17 7 9 980.5 - -
10/04:00am -10.4 -16.5 -13.3 79 - N 15 20 8 11 980.3 - -
10/03:30am -10.4 -16.1 -13.3 79 - N 13 19 7 10 980.1 - -
10/03:00am -9.8 -14.2 -13.4 75 - NW 6 15 3 8 979.9 - -
10/02:36am -9.7 -14.1 -13.3 75 - NNE 6 11 3 6 979.8 - -
10/02:30am -9.8 -13.8 -12.4 81 - N 4 7 2 4 979.7 - -
10/02:15am -9.8 -13.7 -11.7 86 - N 4 6 2 3 979.7 - -
10/02:00am -9.8 -13.7 -11.7 86 - NNE 4 6 2 3 979.6 - -
10/01:31am -9.9 -13.5 -11.8 86 - NNW 2 4 1 2 979.4 - -
10/01:30am -9.8 -13.4 -11.7 86 - NNW 2 4 1 2 979.4 - -
10/01:00am -9.8 -13.7 -11.5 87 - NNW 4 6 2 3 979.4 - -
10/12:30am -9.9 -13.8 -11.6 87 - WNW 4 6 2 3 979.3 - -
10/12:00am -9.6 -13.5 -11.5 86 - W 4 6 2 3 979.0 - -
 
Date/Time
EDT
Temp
°C
App
Temp
°C
Dew
Point
°C
Rel
Hum
%
Delta-T
°C
Wind Press
QNH
hPa
Press
MSL
hPa
Rain since
9am
mm
Dir  Spd
km/h
Gust
km/h
Spd
kts
Gust
kts
09/11:39pm -9.6 -14.1 -11.3 87 - W 7 9 4 5 979.0 - -
09/11:30pm -9.5 -14.0 -11.2 87 - W 7 9 4 5 978.9 - -
09/11:25pm -9.6 -14.5 -11.3 87 - WSW 9 9 5 5 978.9 - -
09/11:10pm -9.5 -14.3 -11.1 88 - WSW 9 11 5 6 978.8 - -
09/11:00pm -9.4 -14.6 -11.0 88 - WSW 11 13 6 7 978.8 - -
09/10:30pm -9.2 -14.0 -11.0 87 - W 9 11 5 6 978.8 - -
09/10:08pm -9.1 -13.9 -10.9 87 - WSW 9 11 5 6 978.7 - -
09/10:00pm -9.1 -13.9 -10.9 87 - WSW 9 11 5 6 978.6 - -
09/09:54pm -9.1 -13.9 -10.9 87 - WSW 9 11 5 6 978.6 - -
09/09:41pm -9.0 -14.2 -10.6 88 - WSW 11 13 6 7 978.6 - -
09/12:00pm -10.6 -18.1 -13.4 80 - NNE 22 24 12 13 976.8 - -
09/11:55am -10.3 -17.4 -13.7 76 - NNE 20 24 11 13 976.8 - -
09/11:30am -11.4 -19.3 -14.1 80 - NE 24 26 13 14 976.7 - -
09/11:25am -11.4 -19.3 -14.6 77 - NE 24 26 13 14 976.7 - -
09/11:00am -11.7 -19.3 -15.1 76 - NNE 22 24 12 13 976.8 - -
09/10:30am -10.9 -17.8 -14.0 78 - NNE 19 20 10 11 976.7 - -
09/10:00am -11.6 -19.5 -14.6 78 - NE 24 26 13 14 976.6 - -
09/09:30am -11.0 -18.1 -14.1 78 - NNE 20 22 11 12 976.6 - -

Other Formats:

Comma delimited format used in spreadsheet applications
http://www.bom.gov.au/fwo/IDT60803/IDT60803.89615.axf

JavaScript Object Notation format (JSON) in row-major order
http://www.bom.gov.au/fwo/IDT60803/IDT60803.89615.json